createdAt,value
2019-04-21T00:01:16.444Z,12.35
2019-04-21T00:03:53.277Z,12.07
2019-04-21T00:06:35.295Z,12.50
2019-04-21T00:09:22.614Z,11.60
2019-04-21T00:11:42.147Z,11.90
2019-04-21T00:14:05.595Z,12.63
2019-04-21T00:16:34.758Z,12.13
2019-04-21T00:19:03.253Z,12.73
2019-04-21T00:21:36.401Z,11.40
2019-04-21T00:24:23.295Z,11.90
2019-04-21T00:27:18.597Z,12.27
2019-04-21T00:29:48.155Z,12.47
2019-04-21T00:32:03.369Z,12.43
2019-04-21T00:34:17.854Z,13.53
2019-04-21T00:37:00.157Z,12.43
2019-04-21T00:39:49.582Z,12.50
2019-04-21T00:42:11.205Z,11.57
2019-04-21T00:44:35.648Z,10.80
2019-04-21T00:47:06.907Z,11.40
2019-04-21T00:49:45.346Z,10.70
2019-04-21T00:52:33.378Z,10.37
2019-04-21T00:54:57.031Z,12.17
2019-04-21T00:57:32.571Z,11.80
2019-04-21T01:00:00.827Z,11.23
2019-04-21T01:02:36.374Z,10.77
2019-04-21T01:05:09.114Z,10.70
2019-04-21T01:07:32.938Z,11.40
2019-04-21T01:09:58.333Z,12.40
2019-04-21T01:12:37.996Z,12.30
2019-04-21T01:15:14.019Z,11.63
2019-04-21T01:17:36.603Z,11.07
2019-04-21T01:20:01.138Z,10.83
2019-04-21T01:22:18.669Z,11.50
2019-04-21T01:24:59.268Z,11.60
2019-04-21T01:27:39.839Z,10.90
2019-04-21T01:30:14.145Z,10.70
2019-04-21T01:32:46.849Z,12.10
2019-04-21T01:35:16.401Z,11.60
2019-04-21T01:37:49.749Z,11.97
2019-04-21T01:40:25.957Z,11.97
2019-04-21T01:42:45.970Z,11.07
2019-04-21T01:45:16.672Z,11.10
2019-04-21T01:47:46.446Z,11.47
2019-04-21T01:50:14.374Z,11.67
2019-04-21T01:52:57.653Z,11.53
2019-04-21T01:55:41.867Z,10.87
2019-04-21T01:58:01.422Z,11.17
2019-04-21T02:00:39.059Z,12.33
2019-04-21T02:03:26.457Z,11.63
2019-04-21T02:05:55.283Z,11.67
2019-04-21T02:08:20.135Z,12.43
2019-04-21T02:10:54.650Z,11.20
2019-04-21T02:13:17.154Z,12.53
2019-04-21T02:15:59.353Z,11.80
2019-04-21T02:18:22.125Z,11.65
2019-04-21T02:20:41.019Z,12.28
2019-04-21T02:26:01.855Z,11.97
2019-04-21T02:28:36.822Z,11.97
2019-04-21T02:31:18.122Z,12.90
2019-04-21T02:36:22.728Z,12.47
2019-04-21T02:38:48.301Z,13.38
2019-04-21T02:41:09.508Z,11.40
2019-04-21T02:43:44.918Z,12.43
2019-04-21T02:48:59.797Z,12.80
2019-04-21T02:51:25.732Z,11.70
2019-04-21T02:54:39.028Z,12.40
2019-04-21T02:56:28.043Z,12.07
2019-04-21T03:01:48.507Z,11.43
2019-04-21T03:04:36.215Z,12.10
2019-04-21T03:07:17.864Z,12.35
2019-04-21T03:09:35.879Z,11.53
2019-04-21T03:12:24.613Z,11.93
2019-04-21T03:14:56.483Z,12.17
2019-04-21T03:17:22.390Z,10.97
2019-04-21T03:19:50.028Z,12.60
2019-04-21T03:22:20.415Z,11.60
2019-04-21T03:29:59.240Z,13.47
2019-04-21T03:37:40.166Z,14.37
2019-04-21T03:40:05.146Z,13.90
2019-04-21T03:42:33.809Z,14.77
2019-04-21T03:45:06.768Z,15.57
2019-04-21T03:47:30.795Z,15.30
2019-04-21T03:50:20.829Z,15.53
2019-04-21T03:52:39.497Z,15.48
2019-04-21T04:08:50.011Z,13.93
2019-04-21T04:11:19.568Z,14.43
2019-04-21T04:14:04.100Z,14.87
2019-04-21T04:16:37.467Z,16.17
2019-04-21T04:19:09.444Z,16.70
2019-04-21T04:24:22.351Z,16.63
2019-04-21T04:27:02.388Z,15.77
2019-04-21T04:29:22.564Z,15.53
2019-04-21T04:34:24.859Z,14.05
2019-04-21T04:39:36.008Z,14.20
2019-04-21T04:42:16.133Z,12.73
2019-04-21T04:52:27.729Z,13.08
2019-04-21T04:54:50.485Z,13.27
2019-04-21T05:04:50.061Z,11.90
2019-04-21T05:07:17.191Z,12.03
2019-04-21T05:09:43.149Z,12.87
2019-04-21T05:12:24.855Z,11.80
2019-04-21T05:17:21.570Z,11.20
2019-04-21T05:19:58.977Z,11.43
2019-04-21T05:22:20.281Z,12.07
2019-04-21T05:24:37.524Z,12.03
2019-04-21T05:27:07.364Z,12.53
2019-04-21T05:29:53.833Z,10.33
2019-04-21T05:32:41.716Z,11.33
2019-04-21T05:35:07.955Z,10.95
2019-04-21T05:37:42.913Z,10.20
2019-04-21T05:40:13.852Z,10.08
2019-04-21T05:42:53.283Z,11.63
2019-04-21T05:45:29.783Z,11.40
2019-04-21T05:48:06.072Z,10.93
2019-04-21T05:50:27.536Z,11.13
2019-04-21T05:52:53.511Z,11.53
2019-04-21T05:55:40.574Z,11.60
2019-04-21T05:58:21.714Z,11.70
2019-04-21T06:01:01.580Z,12.03
2019-04-21T06:03:18.413Z,12.43
2019-04-21T06:05:51.116Z,12.10
2019-04-21T06:08:13.222Z,11.07
2019-04-21T06:10:48.379Z,11.67
2019-04-21T06:13:18.733Z,11.57
2019-04-21T06:15:54.673Z,11.77
2019-04-21T06:18:20.247Z,11.30
2019-04-21T06:20:54.701Z,11.90
2019-04-21T06:23:25.725Z,11.20
2019-04-21T06:26:08.325Z,10.83
2019-04-21T06:28:33.688Z,10.55
2019-04-21T06:33:39.477Z,11.93
2019-04-21T06:38:59.539Z,11.40
2019-04-21T06:41:26.482Z,11.00
2019-04-21T06:43:56.315Z,11.20
2019-04-21T06:46:26.365Z,11.80
2019-04-21T06:51:27.256Z,10.87
2019-04-21T06:54:09.602Z,11.93
2019-04-21T06:56:36.520Z,11.63
2019-04-21T06:59:01.510Z,11.70
2019-04-21T07:01:39.131Z,11.25
2019-04-21T07:04:13.376Z,12.18
2019-04-21T07:06:40.381Z,11.65
2019-04-21T07:09:16.930Z,12.30
2019-04-21T07:11:34.963Z,11.63
2019-04-21T07:14:25.645Z,11.30
2019-04-21T07:16:46.365Z,11.35
2019-04-21T07:19:20.374Z,11.93
2019-04-21T07:21:41.042Z,11.57
2019-04-21T07:24:14.452Z,12.17
2019-04-21T07:26:42.417Z,13.30
2019-04-21T07:29:18.069Z,12.47
2019-04-21T07:31:54.368Z,12.57
2019-04-21T07:34:22.660Z,13.23
2019-04-21T07:36:54.855Z,12.03
2019-04-21T07:39:18.007Z,13.03
2019-04-21T07:41:44.069Z,13.43
2019-04-21T07:44:15.089Z,13.27
2019-04-21T07:46:46.310Z,12.77
2019-04-21T07:49:40.027Z,12.57
2019-04-21T07:52:18.807Z,12.13
2019-04-21T07:54:57.408Z,13.17
2019-04-21T07:57:16.833Z,13.57
2019-04-21T08:02:27.444Z,12.17
2019-04-21T08:05:03.007Z,11.93
2019-04-21T08:07:32.321Z,11.85
2019-04-21T08:09:51.081Z,11.85
2019-04-21T08:12:24.419Z,12.25
2019-04-21T08:14:57.486Z,11.40
2019-04-21T08:17:34.865Z,11.60
2019-04-21T08:19:59.135Z,11.70
2019-04-21T08:22:35.033Z,10.98
2019-04-21T08:25:06.945Z,12.67
2019-04-21T08:27:40.361Z,12.05
2019-04-21T08:30:09.561Z,12.10
2019-04-21T08:32:44.331Z,11.07
2019-04-21T08:35:49.514Z,11.22
2019-04-21T08:37:36.993Z,12.43
2019-04-21T08:42:38.286Z,12.10
2019-04-21T08:45:15.197Z,11.63
2019-04-21T08:47:46.242Z,11.07
2019-04-21T08:50:15.237Z,11.57
2019-04-21T08:52:50.927Z,11.93
2019-04-21T08:55:18.386Z,11.60
2019-04-21T08:58:12.161Z,12.40
2019-04-21T09:00:45.486Z,11.87
2019-04-21T09:03:06.768Z,12.58
2019-04-21T09:05:37.837Z,13.22
2019-04-21T09:08:17.970Z,13.65
2019-04-21T09:10:39.678Z,12.53
2019-04-21T09:13:10.274Z,11.90
2019-04-21T09:15:42.963Z,12.40
2019-04-21T09:18:08.443Z,12.40
2019-04-21T09:20:46.109Z,12.33
2019-04-21T09:23:13.570Z,12.03
2019-04-21T09:25:46.823Z,12.00
2019-04-21T09:28:12.196Z,11.60
2019-04-21T09:30:43.698Z,12.03
2019-04-21T09:33:07.474Z,12.10
2019-04-21T09:35:41.605Z,11.25
2019-04-21T09:38:29.853Z,10.90
2019-04-21T09:40:54.008Z,11.63
2019-04-21T09:43:30.765Z,10.90
2019-04-21T09:45:54.222Z,11.07
2019-04-21T09:48:25.879Z,10.93
2019-04-21T09:50:55.157Z,11.10
2019-04-21T09:53:32.790Z,11.20
2019-04-21T09:56:02.759Z,10.93
2019-04-21T09:58:34.717Z,10.53
2019-04-21T10:01:09.832Z,10.37
2019-04-21T10:03:38.286Z,10.33
2019-04-21T10:06:02.803Z,10.43
2019-04-21T10:08:34.059Z,10.00
2019-04-21T10:11:05.285Z,8.87
2019-04-21T10:13:36.084Z,9.63
2019-04-21T10:16:23.932Z,9.60
2019-04-21T10:18:54.627Z,9.70
2019-04-21T10:21:25.825Z,9.93
2019-04-21T10:23:55.735Z,9.10
2019-04-21T10:26:26.338Z,9.10
2019-04-21T10:29:22.111Z,9.57
2019-04-21T10:31:46.861Z,9.07
2019-04-21T10:34:17.425Z,8.48
2019-04-21T10:36:47.203Z,8.78
2019-04-21T10:39:17.707Z,9.25
2019-04-21T10:41:47.769Z,8.85
2019-04-21T10:44:17.184Z,8.77
2019-04-21T10:46:48.961Z,8.88
2019-04-21T10:49:19.012Z,8.45
2019-04-21T10:51:49.188Z,8.93
2019-04-21T10:54:19.993Z,9.07
2019-04-21T10:56:50.814Z,8.87
2019-04-21T10:59:20.644Z,8.95
2019-04-21T11:01:50.523Z,8.43
2019-04-21T11:04:40.171Z,9.15
2019-04-21T11:07:17.543Z,9.47
2019-04-21T11:09:42.400Z,8.87
2019-04-21T11:12:11.827Z,8.83
2019-04-21T11:14:41.273Z,8.85
2019-04-21T11:17:14.166Z,9.33
2019-04-21T11:19:43.713Z,8.83
2019-04-21T11:22:13.112Z,10.00
2019-04-21T11:24:43.032Z,9.70
2019-04-21T11:27:12.776Z,10.25
2019-04-21T11:29:43.290Z,9.85
2019-04-21T11:32:14.676Z,8.68
2019-04-21T11:34:45.330Z,9.45
2019-04-21T11:37:16.762Z,9.38
2019-04-21T11:39:56.663Z,9.38
2019-04-21T11:42:19.563Z,9.30
2019-04-21T11:44:49.525Z,9.58
2019-04-21T11:47:20.649Z,9.73
2019-04-21T11:49:50.264Z,9.63
2019-04-21T11:52:41.133Z,8.73
2019-04-21T11:55:11.134Z,9.37
2019-04-21T11:57:44.979Z,10.10
2019-04-21T12:00:17.643Z,9.13
2019-04-21T12:02:51.211Z,11.70
2019-04-21T12:05:23.619Z,11.65
2019-04-21T12:07:53.467Z,9.63
2019-04-21T12:10:23.890Z,10.43
2019-04-21T12:12:55.433Z,9.80
2019-04-21T12:15:27.112Z,10.43
2019-04-21T12:17:57.075Z,10.07
2019-04-21T12:20:28.592Z,10.83
2019-04-21T12:22:58.915Z,12.10
2019-04-21T12:25:33.334Z,11.23
2019-04-21T12:28:03.679Z,10.30
2019-04-21T12:30:37.803Z,11.87
2019-04-21T12:33:13.913Z,10.33
2019-04-21T12:35:43.890Z,9.20
2019-04-21T12:38:13.863Z,10.10
2019-04-21T12:40:44.354Z,11.05
2019-04-21T12:43:14.924Z,11.30
2019-04-21T12:45:44.439Z,11.80
2019-04-21T12:48:14.259Z,12.10
2019-04-21T12:50:45.864Z,10.38
2019-04-21T12:53:16.023Z,10.08
2019-04-21T12:55:48.027Z,9.58
2019-04-21T12:58:17.624Z,9.13
2019-04-21T13:00:47.268Z,9.87
2019-04-21T13:03:17.437Z,9.78
2019-04-21T13:05:47.561Z,8.33
2019-04-21T13:08:17.694Z,9.57
2019-04-21T13:10:48.448Z,8.60
2019-04-21T13:13:17.955Z,9.10
2019-04-21T13:15:47.484Z,9.40
2019-04-21T13:18:16.939Z,8.73
2019-04-21T13:20:46.844Z,7.65
2019-04-21T13:23:16.747Z,8.87
2019-04-21T13:25:47.733Z,9.10
2019-04-21T13:28:18.655Z,8.40
2019-04-21T13:30:48.589Z,7.92
2019-04-21T13:33:18.897Z,8.00
2019-04-21T13:35:48.846Z,8.43
2019-04-21T13:38:29.145Z,7.70
2019-04-21T13:41:05.281Z,7.53
2019-04-21T13:43:23.133Z,7.03
2019-04-21T13:45:53.971Z,7.97
2019-04-21T13:48:24.361Z,7.13
2019-04-21T13:50:55.259Z,7.35
2019-04-21T13:53:25.055Z,7.90
2019-04-21T13:55:56.305Z,7.23
2019-04-21T13:58:26.394Z,7.12
2019-04-21T14:00:56.100Z,7.40
2019-04-21T14:03:26.713Z,7.22
2019-04-21T14:05:56.353Z,8.70
2019-04-21T14:08:27.254Z,7.80
2019-04-21T14:10:57.566Z,8.03
2019-04-21T14:13:30.298Z,7.97
2019-04-21T14:15:59.976Z,7.23
2019-04-21T14:18:30.978Z,7.83
2019-04-21T14:21:00.987Z,7.13
2019-04-21T14:23:37.897Z,8.20
2019-04-21T14:26:02.229Z,7.43
2019-04-21T14:28:32.197Z,7.77
2019-04-21T14:31:04.293Z,7.60
2019-04-21T14:33:34.249Z,8.37
2019-04-21T14:36:05.191Z,7.60
2019-04-21T14:38:36.530Z,8.03
2019-04-21T14:41:06.192Z,8.40
2019-04-21T14:43:36.209Z,7.50
2019-04-21T14:46:13.511Z,7.83
2019-04-21T14:49:03.576Z,6.83
2019-04-21T14:51:52.733Z,7.03
2019-04-21T14:54:36.444Z,6.90
2019-04-21T14:57:07.244Z,6.93
2019-04-21T14:59:37.251Z,6.80
2019-04-21T15:04:57.839Z,7.37
2019-04-21T15:07:27.606Z,6.00
2019-04-21T15:10:04.645Z,6.65
2019-04-21T15:12:29.803Z,5.85
2019-04-21T15:15:00.209Z,7.30
2019-04-21T15:17:29.592Z,6.90
2019-04-21T15:20:04.698Z,6.33
2019-04-21T15:22:30.501Z,7.03
2019-04-21T15:25:00.583Z,5.77
2019-04-21T15:27:30.795Z,5.20
2019-04-21T15:30:00.648Z,5.03
2019-04-21T15:32:30.567Z,4.67
2019-04-21T15:35:00.409Z,4.20
2019-04-21T15:37:29.924Z,4.83
2019-04-21T15:40:13.416Z,4.50
2019-04-21T15:42:30.698Z,4.47
2019-04-21T15:45:00.946Z,4.95
2019-04-21T15:47:31.703Z,4.93
2019-04-21T15:50:07.474Z,4.30
2019-04-21T15:52:33.834Z,4.50
2019-04-21T15:55:05.377Z,4.73
2019-04-21T15:57:46.992Z,4.57
2019-04-21T16:00:24.677Z,4.37
2019-04-21T16:02:54.842Z,4.50
2019-04-21T16:05:24.614Z,5.03
2019-04-21T16:07:54.203Z,4.55
2019-04-21T16:10:34.592Z,4.08
2019-04-21T16:12:56.015Z,4.30
2019-04-21T16:15:26.309Z,4.17
2019-04-21T16:17:57.157Z,3.58
2019-04-21T16:20:28.064Z,4.22
2019-04-21T16:22:57.593Z,4.60
2019-04-21T16:25:28.448Z,4.50
2019-04-21T16:27:59.387Z,4.22
2019-04-21T16:30:29.024Z,4.15
2019-04-21T16:33:01.968Z,4.15
2019-04-21T16:35:31.720Z,3.47
2019-04-21T16:38:02.535Z,4.00
2019-04-21T16:40:43.077Z,4.60
2019-04-21T16:43:03.888Z,4.77
2019-04-21T16:45:34.704Z,4.00
2019-04-21T16:48:05.333Z,4.47
2019-04-21T16:50:37.579Z,3.80
2019-04-21T16:53:14.351Z,4.90
2019-04-21T16:56:02.606Z,4.47
2019-04-21T16:58:36.750Z,4.20
2019-04-21T17:01:12.773Z,4.03
2019-04-21T17:03:40.137Z,4.00
2019-04-21T17:06:11.168Z,4.33
2019-04-21T17:08:41.030Z,4.80
2019-04-21T17:11:17.542Z,4.22
2019-04-21T17:13:42.173Z,4.80
2019-04-21T17:16:40.524Z,4.77
2019-04-21T17:18:57.506Z,4.20
2019-04-21T17:21:16.639Z,4.00
2019-04-21T17:23:46.500Z,3.93
2019-04-21T17:26:17.166Z,3.77
2019-04-21T17:28:48.873Z,3.97
2019-04-21T17:31:18.656Z,4.00
2019-04-21T17:33:51.968Z,3.80
2019-04-21T17:36:19.332Z,3.90
2019-04-21T17:39:09.028Z,3.77
2019-04-21T17:41:49.433Z,4.27
2019-04-21T17:44:10.654Z,4.20
2019-04-21T17:46:46.608Z,3.30
2019-04-21T17:49:12.808Z,3.70
2019-04-21T17:51:58.853Z,3.97
2019-04-21T17:54:33.816Z,3.87
2019-04-21T17:57:23.168Z,3.80
2019-04-21T17:59:58.921Z,3.43
2019-04-21T18:02:20.113Z,3.83
2019-04-21T18:04:58.003Z,3.60
2019-04-21T18:07:27.277Z,4.60
2019-04-21T18:12:31.831Z,3.83
2019-04-21T18:14:59.294Z,3.77
2019-04-21T18:17:20.452Z,3.63
2019-04-21T18:19:52.948Z,4.10
2019-04-21T18:22:45.476Z,3.90
2019-04-21T18:25:33.241Z,3.57
2019-04-21T18:27:54.613Z,3.43
2019-04-21T18:30:48.911Z,4.12
2019-04-21T18:33:25.081Z,4.03
2019-04-21T18:36:02.946Z,4.10
2019-04-21T18:39:04.081Z,3.70
2019-04-21T18:41:21.775Z,3.90
2019-04-21T18:44:26.591Z,4.45
2019-04-21T18:46:56.736Z,3.60
2019-04-21T18:49:09.270Z,4.25
2019-04-21T18:51:59.613Z,5.07
2019-04-21T18:54:47.205Z,4.80
2019-04-21T18:57:08.091Z,5.47
2019-04-21T18:59:36.192Z,4.53
2019-04-21T19:02:08.074Z,3.95
2019-04-21T19:04:35.339Z,4.17
2019-04-21T19:07:18.240Z,4.10
2019-04-21T19:10:09.884Z,4.20
2019-04-21T19:12:35.590Z,5.60
2019-04-21T19:14:56.056Z,6.47
2019-04-21T19:18:12.450Z,5.43
2019-04-21T19:20:07.772Z,5.93
2019-04-21T19:22:34.581Z,6.40
2019-04-21T19:25:09.612Z,5.20
2019-04-21T19:27:32.449Z,5.45
2019-04-21T19:30:12.079Z,5.90
2019-04-21T19:32:37.581Z,6.57
2019-04-21T19:34:55.801Z,6.17
2019-04-21T19:37:26.167Z,5.60
2019-04-21T19:40:09.618Z,5.53
2019-04-21T19:42:51.178Z,5.50
2019-04-21T19:45:27.791Z,4.80
2019-04-21T19:48:08.041Z,5.07
2019-04-21T19:50:41.179Z,5.57
2019-04-21T19:53:02.471Z,5.50
2019-04-21T19:55:20.490Z,5.20
2019-04-21T19:57:50.456Z,6.47
2019-04-21T20:00:24.734Z,6.03
2019-04-21T20:02:54.508Z,6.10
2019-04-21T20:05:36.129Z,6.17
2019-04-21T20:08:14.544Z,7.07
2019-04-21T20:10:48.342Z,7.10
2019-04-21T20:13:26.036Z,6.97
2019-04-21T20:15:52.035Z,5.58
2019-04-21T20:18:16.501Z,6.57
2019-04-21T20:20:35.247Z,6.27
2019-04-21T20:23:08.930Z,6.73
2019-04-21T20:25:43.696Z,6.53
2019-04-21T20:28:17.018Z,7.10
2019-04-21T20:30:58.415Z,7.03
2019-04-21T20:36:01.971Z,8.03
2019-04-21T20:38:30.118Z,7.90
2019-04-21T20:40:56.952Z,7.90
2019-04-21T20:43:38.166Z,8.15
2019-04-21T20:46:07.901Z,7.70
2019-04-21T20:48:40.138Z,8.40
2019-04-21T20:51:11.620Z,8.55
2019-04-21T20:53:42.583Z,7.47
2019-04-21T20:56:08.994Z,8.78
2019-04-21T20:58:49.337Z,8.28
2019-04-21T21:03:58.093Z,8.23
2019-04-21T21:06:18.735Z,8.23
2019-04-21T21:08:50.192Z,8.10
2019-04-21T21:11:20.897Z,8.70
2019-04-21T21:13:53.965Z,8.07
2019-04-21T21:16:35.397Z,7.90
2019-04-21T21:19:15.768Z,8.03
2019-04-21T21:21:24.401Z,8.50
2019-04-21T21:23:52.710Z,8.63
2019-04-21T21:26:31.170Z,8.20
2019-04-21T21:28:56.285Z,7.80
2019-04-21T21:31:35.663Z,8.30
2019-04-21T21:34:24.237Z,7.67
2019-04-21T21:36:31.527Z,9.00
2019-04-21T21:39:09.644Z,8.23
2019-04-21T21:41:28.431Z,9.18
2019-04-21T21:43:58.134Z,8.67
2019-04-21T21:46:40.323Z,8.30
2019-04-21T21:49:05.081Z,8.10
2019-04-21T21:51:43.005Z,7.47
2019-04-21T21:54:05.417Z,8.70
2019-04-21T21:56:36.402Z,7.42
2019-04-21T21:59:13.545Z,8.43
2019-04-21T22:01:43.183Z,8.20
2019-04-21T22:04:15.285Z,8.80
2019-04-21T22:06:47.796Z,8.47
2019-04-21T22:09:12.664Z,8.37
2019-04-21T22:11:44.257Z,8.13
2019-04-21T22:14:24.370Z,8.63
2019-04-21T22:17:05.968Z,7.83
2019-04-21T22:19:36.724Z,7.67
2019-04-21T22:22:08.102Z,8.20
2019-04-21T22:24:35.164Z,8.40
2019-04-21T22:26:52.473Z,8.67
2019-04-21T22:29:23.536Z,8.90
2019-04-21T22:32:02.749Z,8.03
2019-04-21T22:34:30.248Z,7.83
2019-04-21T22:37:13.482Z,7.80
2019-04-21T22:39:44.974Z,7.57
2019-04-21T22:42:05.030Z,7.50
2019-04-21T22:44:30.193Z,8.43
2019-04-21T22:47:09.663Z,7.47
2019-04-21T22:49:32.594Z,8.37
2019-04-21T22:52:10.347Z,8.25
2019-04-21T22:54:38.153Z,7.73
2019-04-21T22:57:12.036Z,7.90
2019-04-21T22:59:37.294Z,7.25
2019-04-21T23:02:15.404Z,7.30
2019-04-21T23:04:43.773Z,7.97
2019-04-21T23:07:13.529Z,7.23
2019-04-21T23:09:40.678Z,7.40
2019-04-21T23:12:12.415Z,7.17
2019-04-21T23:14:49.386Z,7.43
2019-04-21T23:17:32.789Z,7.63
2019-04-21T23:20:05.682Z,6.97
2019-04-21T23:22:32.632Z,6.87
2019-04-21T23:25:09.532Z,7.40
2019-04-21T23:27:34.386Z,7.50
2019-04-21T23:30:13.737Z,7.20
2019-04-21T23:32:30.531Z,7.00
2019-04-21T23:34:54.404Z,7.17
2019-04-21T23:37:25.616Z,6.90
2019-04-21T23:40:01.034Z,7.17
2019-04-21T23:42:31.784Z,8.37
2019-04-21T23:44:59.582Z,6.96
2019-04-21T23:47:41.757Z,7.10
2019-04-21T23:50:07.416Z,7.13
2019-04-21T23:52:31.817Z,8.00
2019-04-21T23:55:01.259Z,7.67
2019-04-21T23:57:37.954Z,7.53
